Time;durP1;ratioP1;P1;durP2;ratioP2;P2;SDS_P1;SDS_P2;PMS_P1;PMS_P2;Temp;Humidity;BMP_temperature;BMP_pressure;BME280_temperature;BME280_humidity;BME280_pressure;Samples;Min_cycle;Max_cycle;Signal;HPM_P1;HPM_P2
2024/01/09 00:04:42;;;;;;;2.53;1.33;;;-0.50;99.90;;;;;;20993072;28;20028;-60
2024/01/09 00:14:48;;;;;;;1.13;0.85;;;-0.30;99.90;;;;;;20991286;28;20770;-53
2024/01/09 00:24:50;;;;;;;2.65;1.10;;;-0.10;99.90;;;;;;21069413;28;20056;-59
2024/01/09 00:34:52;;;;;;;2.00;1.20;;;0.00;99.90;;;;;;21073177;28;20081;-60
2024/01/09 00:44:54;;;;;;;2.97;1.25;;;0.10;99.90;;;;;;21072539;28;20032;-59
2024/01/09 00:54:56;;;;;;;1.92;1.00;;;0.10;99.90;;;;;;21071890;28;20036;-60
2024/01/09 01:04:58;;;;;;;1.73;1.08;;;0.10;99.90;;;;;;21071686;28;20557;-60
2024/01/09 01:15:00;;;;;;;1.92;1.02;;;0.10;99.90;;;;;;21070093;28;20371;-60
2024/01/09 01:25:02;;;;;;;4.13;1.10;;;0.00;99.90;;;;;;21069647;28;20047;-60
2024/01/09 01:35:04;;;;;;;2.03;1.00;;;0.00;99.90;;;;;;21069267;28;20093;-56
2024/01/09 01:45:18;;;;;;;1.75;1.15;;;0.00;99.90;;;;;;21068088;28;20032;-60
2024/01/09 01:55:24;;;;;;;1.40;0.98;;;-0.10;99.90;;;;;;21067419;28;20463;-60
2024/01/09 02:05:28;;;;;;;2.10;1.13;;;-0.20;99.90;;;;;;21067383;28;20031;-60
2024/01/09 02:15:30;;;;;;;1.45;1.00;;;-0.20;99.90;;;;;;21065130;28;20089;-59
2024/01/09 02:25:32;;;;;;;1.50;1.00;;;-0.30;99.90;;;;;;21066192;28;20032;-60
2024/01/09 02:35:34;;;;;;;1.60;1.20;;;-0.30;99.90;;;;;;21068260;28;20416;-59
2024/01/09 02:45:36;;;;;;;2.10;1.40;;;-0.40;99.90;;;;;;21065641;28;20032;-59
2024/01/09 02:55:37;;;;;;;1.98;1.30;;;-0.50;99.90;;;;;;21065626;28;20031;-59
2024/01/09 03:05:39;;;;;;;2.97;1.27;;;-0.60;99.90;;;;;;21075929;28;20489;-59
2024/01/09 03:15:41;;;;;;;1.92;1.20;;;-0.60;99.90;;;;;;21079535;28;20443;-59
2024/01/09 03:25:43;;;;;;;1.95;1.30;;;-0.60;99.90;;;;;;21079223;28;20032;-59
2024/01/09 03:35:45;;;;;;;2.03;1.40;;;-0.70;99.90;;;;;;21078724;28;20044;-60
2024/01/09 03:45:47;;;;;;;2.65;1.50;;;-0.70;99.90;;;;;;21077648;28;20075;-59
2024/01/09 03:55:49;;;;;;;2.05;1.23;;;-0.90;99.90;;;;;;21076574;28;20098;-59
2024/01/09 04:05:50;;;;;;;2.80;1.70;;;-1.00;99.90;;;;;;21076344;28;20436;-59
2024/01/09 04:15:52;;;;;;;2.70;1.83;;;-1.10;99.90;;;;;;21074812;28;20055;-59
2024/01/09 04:25:54;;;;;;;3.83;2.65;;;-1.30;99.90;;;;;;21069942;28;20117;-59
2024/01/09 04:35:56;;;;;;;2.70;1.70;;;-1.40;99.90;;;;;;21073786;28;20081;-59
2024/01/09 04:45:58;;;;;;;3.20;1.90;;;-1.50;99.90;;;;;;21054707;28;20035;-60
2024/01/09 04:56:00;;;;;;;4.18;2.05;;;-1.50;99.90;;;;;;21072076;28;20035;-59
2024/01/09 05:06:02;;;;;;;3.20;2.17;;;-1.60;99.90;;;;;;21067416;28;20081;-59
2024/01/09 05:16:04;;;;;;;2.92;1.73;;;-1.60;99.90;;;;;;21051987;28;20036;-59
2024/01/09 05:26:06;;;;;;;2.20;1.30;;;-1.70;99.90;;;;;;21069439;28;20040;-59
2024/01/09 05:36:08;;;;;;;1.58;0.90;;;-1.90;99.90;;;;;;21049631;28;20039;-57
2024/01/09 05:46:10;;;;;;;1.45;1.00;;;-2.00;99.90;;;;;;21068295;28;20040;-58
2024/01/09 05:56:12;;;;;;;1.70;0.88;;;-2.10;99.90;;;;;;21048779;28;20575;-59
2024/01/09 06:06:13;;;;;;;2.67;1.17;;;-2.30;99.90;;;;;;21067865;28;20085;-60
2024/01/09 06:16:15;;;;;;;2.35;1.50;;;-2.30;99.90;;;;;;21067550;28;20074;-59
2024/01/09 06:26:17;;;;;;;3.45;1.60;;;-2.50;99.90;;;;;;21061263;28;20397;-59
2024/01/09 06:36:20;;;;;;;3.33;2.10;;;-2.40;99.90;;;;;;21064751;28;20028;-60
2024/01/09 06:46:22;;;;;;;3.40;2.50;;;-2.30;99.90;;;;;;21042448;28;20039;-59
2024/01/09 06:56:23;;;;;;;4.95;2.67;;;-2.30;99.90;;;;;;21071711;28;20089;-59
2024/01/09 07:06:29;;;;;;;3.55;2.20;;;-2.40;99.90;;;;;;21071215;28;20432;-59
2024/01/09 07:16:31;;;;;;;2.65;1.55;;;-2.30;99.90;;;;;;21022287;28;1369825;-59
2024/01/09 07:26:39;;;;;;;2.25;1.33;;;-2.20;99.90;;;;;;21074502;28;20047;-58
2024/01/09 07:36:42;;;;;;;3.83;1.95;;;-2.20;99.90;;;;;;21055480;28;20040;-59
2024/01/09 07:46:44;;;;;;;4.32;2.90;;;-1.90;99.90;;;;;;21068483;28;20070;-59
2024/01/09 07:56:47;;;;;;;3.42;2.13;;;-1.30;99.90;;;;;;21072112;28;20028;-60
2024/01/09 08:06:50;;;;;;;4.68;2.38;;;-0.50;99.90;;;;;;21071383;28;20462;-61
2024/01/09 08:16:58;;;;;;;3.33;1.70;;;0.50;99.90;;;;;;21049785;28;20097;-61
2024/01/09 08:27:00;;;;;;;2.28;1.27;;;1.80;99.90;;;;;;21068475;28;20028;-62
2024/01/09 08:37:02;;;;;;;1.45;1.02;;;2.90;99.90;;;;;;21067761;28;20089;-62
2024/01/09 08:47:04;;;;;;;2.90;1.80;;;3.90;99.90;;;;;;21069375;28;20035;-62
2024/01/09 08:57:06;;;;;;;6.43;3.67;;;4.60;99.90;;;;;;21060575;28;20056;-62
2024/01/09 09:07:08;;;;;;;9.73;6.00;;;4.90;99.90;;;;;;21046781;28;20036;-62
2024/01/09 09:17:12;;;;;;;9.82;5.57;;;4.90;99.90;;;;;;21065618;28;20056;-62
2024/01/09 09:27:14;;;;;;;10.38;6.70;;;4.70;99.90;;;;;;21065961;28;20040;-61
2024/01/09 09:37:16;;;;;;;12.38;7.50;;;4.60;99.90;;;;;;21064268;28;20036;-62
2024/01/09 09:47:21;;;;;;;10.70;6.95;;;4.60;99.90;;;;;;21045176;28;20101;-45
2024/01/09 09:57:24;;;;;;;10.63;7.53;;;5.00;99.90;;;;;;21064549;28;20036;-58
2024/01/09 10:07:29;;;;;;;9.45;6.55;;;4.70;99.90;;;;;;21058505;28;20031;-59
2024/01/09 10:17:44;;;;;;;10.90;7.78;;;5.00;99.90;;;;;;21062421;28;20048;-59
2024/01/09 10:27:46;;;;;;;11.32;8.00;;;5.20;99.90;;;;;;21063978;28;20101;-58
2024/01/09 10:37:53;;;;;;;12.48;8.63;;;4.70;99.90;;;;;;21057878;28;20035;-57
2024/01/09 10:47:56;;;;;;;11.27;8.15;;;3.90;99.90;;;;;;21061065;28;20048;-58
2024/01/09 10:57:58;;;;;;;12.80;8.32;;;3.60;99.90;;;;;;21060585;28;20694;-59
2024/01/09 11:08:05;;;;;;;15.32;8.45;;;3.80;99.90;;;;;;21060116;28;20028;-57
2024/01/09 11:18:12;;;;;;;11.52;7.80;;;4.20;99.90;;;;;;21041747;28;20063;-59
2024/01/09 11:28:42;;;;;;;9.73;6.93;;;4.90;99.90;;;;;;21073900;28;20024;-59
2024/01/09 11:38:48;;;;;;;10.73;7.27;;;5.10;99.90;;;;;;21074747;28;20028;-58
2024/01/09 11:48:50;;;;;;;9.57;6.80;;;5.30;99.90;;;;;;21073451;28;20051;-57
2024/01/09 11:58:53;;;;;;;10.70;7.22;;;4.80;99.90;;;;;;21054294;28;20040;-44
2024/01/09 12:08:59;;;;;;;12.65;7.82;;;3.70;99.90;;;;;;21073746;28;20283;-54
2024/01/09 12:19:01;;;;;;;12.48;8.18;;;3.00;99.90;;;;;;21052793;28;20048;-58
2024/01/09 12:29:04;;;;;;;12.60;7.72;;;3.00;99.90;;;;;;21069135;28;20113;-57
2024/01/09 12:39:09;;;;;;;13.38;7.55;;;3.20;99.90;;;;;;21068606;28;20691;-55
2024/01/09 12:49:12;;;;;;;14.27;8.77;;;3.20;99.90;;;;;;21069617;28;20036;-57
2024/01/09 12:59:18;;;;;;;13.30;8.02;;;3.00;99.90;;;;;;21067447;28;20474;-57
2024/01/09 13:09:20;;;;;;;15.80;8.27;;;3.00;99.90;;;;;;21067290;28;20073;-57
2024/01/09 13:19:22;;;;;;;16.77;9.20;;;2.70;99.90;;;;;;21065305;28;20187;-57
2024/01/09 13:29:25;;;;;;;14.85;9.13;;;2.40;99.90;;;;;;21046632;28;20028;-57
2024/01/09 13:39:28;;;;;;;16.80;8.45;;;2.50;99.90;;;;;;21063755;28;20519;-57
2024/01/09 13:49:29;;;;;;;13.18;8.00;;;2.30;99.90;;;;;;21063265;28;20036;-57
2024/01/09 13:59:31;;;;;;;13.50;8.35;;;2.00;99.90;;;;;;21062502;28;20031;-58
2024/01/09 14:09:33;;;;;;;12.27;8.15;;;1.90;99.90;;;;;;21062738;28;20446;-59
2024/01/09 14:19:35;;;;;;;12.43;8.15;;;1.70;99.90;;;;;;21060216;28;20402;-60
2024/01/09 14:29:44;;;;;;;14.38;9.30;;;1.80;99.90;;;;;;21061953;28;20032;-60
2024/01/09 14:39:46;;;;;;;17.02;9.98;;;1.70;99.90;;;;;;21061869;28;20074;-60
2024/01/09 14:49:48;;;;;;;16.40;9.68;;;1.40;99.90;;;;;;21042269;28;20040;-60
2024/01/09 14:59:49;;;;;;;16.35;9.85;;;1.10;99.90;;;;;;21069503;28;20477;-60
2024/01/09 15:09:51;;;;;;;17.77;9.88;;;1.00;99.90;;;;;;21076530;28;20032;-59
2024/01/09 15:19:53;;;;;;;16.27;9.90;;;0.80;99.90;;;;;;21045971;28;20052;-59
2024/01/09 15:29:55;;;;;;;20.02;10.85;;;0.70;99.90;;;;;;21074762;28;20379;-59
2024/01/09 15:39:57;;;;;;;20.98;10.93;;;0.50;99.90;;;;;;21073837;28;20035;-58
2024/01/09 15:50:05;;;;;;;20.33;10.05;;;0.20;99.90;;;;;;21072974;28;20036;-59
2024/01/09 16:00:09;;;;;;;22.50;12.02;;;0.00;99.90;;;;;;21071138;28;20140;-59
2024/01/09 16:10:11;;;;;;;27.02;13.13;;;-0.30;99.90;;;;;;21070126;28;20036;-47
2024/01/09 16:20:12;;;;;;;19.77;11.70;;;-0.30;99.90;;;;;;21070078;28;20056;-58
2024/01/09 16:30:15;;;;;;;26.10;12.82;;;-0.50;99.90;;;;;;21074558;28;20032;-59
2024/01/09 16:40:17;;;;;;;20.27;11.63;;;-0.60;99.90;;;;;;21073432;28;20036;-59
2024/01/09 16:50:19;;;;;;;22.58;12.75;;;-0.60;99.90;;;;;;21073322;28;20040;-59
2024/01/09 17:00:21;;;;;;;22.52;12.68;;;-0.70;99.90;;;;;;21072326;28;20502;-59
2024/01/09 17:10:23;;;;;;;21.10;12.35;;;-0.70;99.90;;;;;;21071224;28;20066;-59
2024/01/09 17:20:24;;;;;;;25.38;13.15;;;-0.80;99.90;;;;;;21069735;28;20406;-53
2024/01/09 17:30:29;;;;;;;22.20;12.82;;;-0.90;99.90;;;;;;21069654;28;20075;-60
2024/01/09 17:40:31;;;;;;;20.02;12.32;;;-0.80;99.90;;;;;;21069140;28;20032;-59
2024/01/09 17:50:33;;;;;;;27.02;14.10;;;-0.80;99.90;;;;;;21068746;28;20032;-59
2024/01/09 18:00:34;;;;;;;22.05;12.85;;;-0.90;99.90;;;;;;21067811;28;20039;-59
2024/01/09 18:10:40;;;;;;;23.98;13.82;;;-1.00;99.90;;;;;;21067898;28;20101;-59
2024/01/09 18:20:43;;;;;;;25.05;13.32;;;-1.10;99.90;;;;;;21067005;28;20109;-59
2024/01/09 18:30:45;;;;;;;25.38;14.02;;;-1.10;99.90;;;;;;21072042;28;20036;-58
2024/01/09 18:40:47;;;;;;;30.92;16.38;;;-1.00;99.90;;;;;;21083631;28;20685;-59
2024/01/09 18:50:49;;;;;;;26.67;13.50;;;-1.10;99.90;;;;;;21082879;28;20113;-59
2024/01/09 19:00:51;;;;;;;24.15;13.02;;;-1.10;99.90;;;;;;21081692;28;20032;-60
2024/01/09 19:10:53;;;;;;;25.60;13.82;;;-1.00;99.90;;;;;;21082089;28;20090;-60
2024/01/09 19:20:55;;;;;;;21.38;12.27;;;-1.00;99.90;;;;;;21080288;28;20101;-59
2024/01/09 19:31:01;;;;;;;19.90;10.25;;;-1.00;99.90;;;;;;21079371;28;20048;-59
2024/01/09 19:41:02;;;;;;;25.15;14.35;;;-1.00;99.90;;;;;;21078288;28;20048;-59
2024/01/09 19:51:08;;;;;;;27.52;14.40;;;-0.90;99.90;;;;;;21078142;28;20028;-59
2024/01/09 20:01:13;;;;;;;30.70;17.20;;;-1.30;99.90;;;;;;21076840;28;20032;-60
2024/01/09 20:11:28;;;;;;;30.65;16.00;;;-1.60;99.90;;;;;;21076432;28;20035;-59
2024/01/09 20:21:32;;;;;;;33.00;18.40;;;-1.60;99.90;;;;;;21076155;28;20052;-59
2024/01/09 20:31:37;;;;;;;42.97;20.17;;;-1.60;99.90;;;;;;21073016;28;20047;-59
2024/01/09 20:41:45;;;;;;;42.03;20.23;;;-1.60;99.90;;;;;;21073853;28;20032;-59
2024/01/09 20:51:47;;;;;;;42.03;19.42;;;-1.80;99.90;;;;;;21071757;28;20062;-57
2024/01/09 21:01:49;;;;;;;36.90;17.70;;;-1.90;99.90;;;;;;21069163;28;20032;-59
2024/01/09 21:11:51;;;;;;;34.63;18.27;;;-2.00;99.90;;;;;;21070785;28;20032;-59
2024/01/09 21:21:52;;;;;;;48.70;21.75;;;-2.00;99.90;;;;;;21070286;28;20059;-59
2024/01/09 21:31:54;;;;;;;43.33;19.35;;;-1.90;99.90;;;;;;21070075;28;20044;-60
2024/01/09 21:41:56;;;;;;;49.05;22.30;;;-1.80;99.90;;;;;;21069082;28;20028;-60
2024/01/09 21:51:58;;;;;;;39.30;20.15;;;-1.70;99.90;;;;;;21062703;28;20032;-60
2024/01/09 22:02:01;;;;;;;44.42;21.65;;;-1.70;99.90;;;;;;21061801;28;20057;-60
2024/01/09 22:12:04;;;;;;;39.42;19.80;;;-1.80;99.90;;;;;;21059291;28;20547;-60
2024/01/09 22:22:07;;;;;;;90.18;20.48;;;-1.80;99.90;;;;;;21063666;28;20536;-59
2024/01/09 22:32:09;;;;;;;37.78;18.90;;;-1.70;99.90;;;;;;21067344;28;20040;-60
2024/01/09 22:42:10;;;;;;;38.25;19.30;;;-1.60;99.90;;;;;;21041457;28;20042;-50
2024/01/09 22:52:12;;;;;;;45.70;21.30;;;-1.60;99.90;;;;;;21065715;28;20440;-60
2024/01/09 23:02:14;;;;;;;43.78;20.50;;;-1.60;99.90;;;;;;21047280;28;20032;-60
2024/01/09 23:12:15;;;;;;;36.95;18.48;;;-1.60;99.90;;;;;;21064584;28;20028;-60
2024/01/09 23:22:17;;;;;;;33.17;17.73;;;-1.60;99.90;;;;;;21075039;28;20434;-60
2024/01/09 23:32:19;;;;;;;41.90;19.70;;;-1.70;99.90;;;;;;21079716;28;20066;-60
2024/01/09 23:42:20;;;;;;;40.38;18.52;;;-1.90;99.90;;;;;;21078763;28;20028;-60
2024/01/09 23:52:22;;;;;;;42.47;19.77;;;-1.90;99.90;;;;;;21077991;28;20036;-59
